sensor_id;sensor_type;location;lat;lon;timestamp;P1;durP1;ratioP1;P2;durP2;ratioP2
52888;SDS011;41413;52.770;6.892;2022-07-29T00:00:56;4.97;;;2.03;;
52888;SDS011;41413;52.770;6.892;2022-07-29T00:03:23;2.25;;;1.73;;
52888;SDS011;41413;52.770;6.892;2022-07-29T00:05:49;4.35;;;2.25;;
52888;SDS011;41413;52.770;6.892;2022-07-29T00:08:19;1.90;;;1.70;;
52888;SDS011;41413;52.770;6.892;2022-07-29T00:10:46;2.13;;;1.98;;
52888;SDS011;41413;52.770;6.892;2022-07-29T00:13:13;1.92;;;1.70;;
52888;SDS011;41413;52.770;6.892;2022-07-29T00:15:39;2.60;;;2.28;;
52888;SDS011;41413;52.770;6.892;2022-07-29T00:18:06;1.70;;;1.60;;
52888;SDS011;41413;52.770;6.892;2022-07-29T00:20:33;4.05;;;2.17;;
52888;SDS011;41413;52.770;6.892;2022-07-29T00:23:00;4.07;;;2.00;;
52888;SDS011;41413;52.770;6.892;2022-07-29T00:25:26;2.83;;;2.03;;
52888;SDS011;41413;52.770;6.892;2022-07-29T00:27:53;3.35;;;2.17;;
52888;SDS011;41413;52.770;6.892;2022-07-29T00:30:20;2.75;;;2.08;;
52888;SDS011;41413;52.770;6.892;2022-07-29T00:32:46;2.33;;;2.13;;
52888;SDS011;41413;52.770;6.892;2022-07-29T00:35:13;3.38;;;2.10;;
52888;SDS011;41413;52.770;6.892;2022-07-29T00:37:59;3.90;;;2.33;;
52888;SDS011;41413;52.770;6.892;2022-07-29T00:40:27;3.65;;;2.17;;
52888;SDS011;41413;52.770;6.892;2022-07-29T00:42:53;5.30;;;2.45;;
52888;SDS011;41413;52.770;6.892;2022-07-29T00:45:20;2.15;;;2.00;;
52888;SDS011;41413;52.770;6.892;2022-07-29T00:47:48;9.55;;;2.53;;
52888;SDS011;41413;52.770;6.892;2022-07-29T00:50:15;2.42;;;2.22;;
52888;SDS011;41413;52.770;6.892;2022-07-29T00:52:42;4.60;;;1.77;;
52888;SDS011;41413;52.770;6.892;2022-07-29T00:55:10;3.35;;;2.10;;
52888;SDS011;41413;52.770;6.892;2022-07-29T00:57:40;2.20;;;1.88;;
52888;SDS011;41413;52.770;6.892;2022-07-29T01:00:09;4.20;;;2.33;;
52888;SDS011;41413;52.770;6.892;2022-07-29T01:02:38;2.33;;;2.10;;
52888;SDS011;41413;52.770;6.892;2022-07-29T01:05:05;2.40;;;1.95;;
52888;SDS011;41413;52.770;6.892;2022-07-29T01:07:36;4.07;;;2.00;;
52888;SDS011;41413;52.770;6.892;2022-07-29T01:10:04;2.05;;;1.73;;
52888;SDS011;41413;52.770;6.892;2022-07-29T01:12:33;5.32;;;2.28;;
52888;SDS011;41413;52.770;6.892;2022-07-29T01:15:02;2.60;;;2.10;;
52888;SDS011;41413;52.770;6.892;2022-07-29T01:17:32;2.20;;;2.00;;
52888;SDS011;41413;52.770;6.892;2022-07-29T01:23:00;3.05;;;2.20;;
52888;SDS011;41413;52.770;6.892;2022-07-29T01:34:27;3.35;;;2.22;;
52888;SDS011;41413;52.770;6.892;2022-07-29T01:40:27;2.22;;;2.03;;
52888;SDS011;41413;52.770;6.892;2022-07-29T01:43:02;3.20;;;2.10;;
52888;SDS011;41413;52.770;6.892;2022-07-29T01:51:38;2.17;;;1.92;;
52888;SDS011;41413;52.770;6.892;2022-07-29T01:54:41;7.15;;;2.13;;
52888;SDS011;41413;52.770;6.892;2022-07-29T01:57:13;3.83;;;3.10;;
52888;SDS011;41413;52.770;6.892;2022-07-29T01:59:43;8.13;;;2.88;;
52888;SDS011;41413;52.770;6.892;2022-07-29T02:02:13;3.78;;;2.53;;
52888;SDS011;41413;52.770;6.892;2022-07-29T02:04:42;5.85;;;3.00;;
52888;SDS011;41413;52.770;6.892;2022-07-29T02:07:12;2.63;;;2.45;;
52888;SDS011;41413;52.770;6.892;2022-07-29T02:09:44;6.28;;;2.40;;
52888;SDS011;41413;52.770;6.892;2022-07-29T02:12:13;2.88;;;2.35;;
52888;SDS011;41413;52.770;6.892;2022-07-29T02:14:43;3.60;;;2.72;;
52888;SDS011;41413;52.770;6.892;2022-07-29T02:17:13;4.93;;;2.63;;
52888;SDS011;41413;52.770;6.892;2022-07-29T02:19:46;3.40;;;2.58;;
52888;SDS011;41413;52.770;6.892;2022-07-29T02:22:14;2.85;;;2.22;;
52888;SDS011;41413;52.770;6.892;2022-07-29T02:24:42;3.38;;;2.13;;
52888;SDS011;41413;52.770;6.892;2022-07-29T02:27:10;2.63;;;2.40;;
52888;SDS011;41413;52.770;6.892;2022-07-29T02:29:39;4.20;;;2.20;;
52888;SDS011;41413;52.770;6.892;2022-07-29T02:32:06;5.13;;;2.47;;
52888;SDS011;41413;52.770;6.892;2022-07-29T02:34:35;2.58;;;2.20;;
52888;SDS011;41413;52.770;6.892;2022-07-29T02:37:05;6.10;;;2.75;;
52888;SDS011;41413;52.770;6.892;2022-07-29T02:39:35;5.32;;;2.50;;
52888;SDS011;41413;52.770;6.892;2022-07-29T02:42:05;3.60;;;2.22;;
52888;SDS011;41413;52.770;6.892;2022-07-29T02:44:36;2.97;;;2.67;;
52888;SDS011;41413;52.770;6.892;2022-07-29T02:47:23;4.97;;;2.33;;
52888;SDS011;41413;52.770;6.892;2022-07-29T02:50:17;2.92;;;2.20;;
52888;SDS011;41413;52.770;6.892;2022-07-29T02:58:01;5.13;;;2.17;;
52888;SDS011;41413;52.770;6.892;2022-07-29T03:00:47;2.60;;;1.95;;
52888;SDS011;41413;52.770;6.892;2022-07-29T03:03:17;2.90;;;2.28;;
52888;SDS011;41413;52.770;6.892;2022-07-29T03:05:45;4.60;;;2.30;;
52888;SDS011;41413;52.770;6.892;2022-07-29T03:08:11;3.15;;;2.40;;
52888;SDS011;41413;52.770;6.892;2022-07-29T03:10:42;2.60;;;2.25;;
52888;SDS011;41413;52.770;6.892;2022-07-29T03:13:11;3.03;;;2.22;;
52888;SDS011;41413;52.770;6.892;2022-07-29T03:15:39;4.70;;;2.25;;
52888;SDS011;41413;52.770;6.892;2022-07-29T03:18:08;3.22;;;2.50;;
52888;SDS011;41413;52.770;6.892;2022-07-29T03:20:36;4.55;;;2.25;;
52888;SDS011;41413;52.770;6.892;2022-07-29T03:23:04;2.80;;;2.03;;
52888;SDS011;41413;52.770;6.892;2022-07-29T03:25:30;2.17;;;1.98;;
52888;SDS011;41413;52.770;6.892;2022-07-29T03:27:57;2.45;;;2.00;;
52888;SDS011;41413;52.770;6.892;2022-07-29T03:30:24;3.30;;;2.10;;
52888;SDS011;41413;52.770;6.892;2022-07-29T03:32:51;4.50;;;2.38;;
52888;SDS011;41413;52.770;6.892;2022-07-29T03:35:19;7.47;;;2.70;;
52888;SDS011;41413;52.770;6.892;2022-07-29T03:37:46;7.05;;;3.03;;
52888;SDS011;41413;52.770;6.892;2022-07-29T03:40:22;2.83;;;2.35;;
52888;SDS011;41413;52.770;6.892;2022-07-29T03:42:53;3.22;;;2.40;;
52888;SDS011;41413;52.770;6.892;2022-07-29T03:45:21;1.88;;;1.73;;
52888;SDS011;41413;52.770;6.892;2022-07-29T03:47:51;2.40;;;2.10;;
52888;SDS011;41413;52.770;6.892;2022-07-29T03:50:26;3.08;;;2.15;;
52888;SDS011;41413;52.770;6.892;2022-07-29T03:52:56;6.22;;;2.80;;
52888;SDS011;41413;52.770;6.892;2022-07-29T03:55:23;2.50;;;1.75;;
52888;SDS011;41413;52.770;6.892;2022-07-29T03:57:51;3.05;;;2.75;;
52888;SDS011;41413;52.770;6.892;2022-07-29T04:00:18;5.03;;;2.08;;
52888;SDS011;41413;52.770;6.892;2022-07-29T04:02:45;4.30;;;2.78;;
52888;SDS011;41413;52.770;6.892;2022-07-29T04:05:15;4.47;;;2.63;;
52888;SDS011;41413;52.770;6.892;2022-07-29T04:07:46;2.60;;;1.95;;
52888;SDS011;41413;52.770;6.892;2022-07-29T04:10:14;3.22;;;2.35;;
52888;SDS011;41413;52.770;6.892;2022-07-29T04:12:56;3.72;;;2.85;;
52888;SDS011;41413;52.770;6.892;2022-07-29T04:15:23;3.72;;;2.30;;
52888;SDS011;41413;52.770;6.892;2022-07-29T04:17:50;2.63;;;2.15;;
52888;SDS011;41413;52.770;6.892;2022-07-29T04:20:17;3.53;;;2.13;;
52888;SDS011;41413;52.770;6.892;2022-07-29T04:22:44;1.83;;;1.73;;
52888;SDS011;41413;52.770;6.892;2022-07-29T04:25:11;4.63;;;2.47;;
52888;SDS011;41413;52.770;6.892;2022-07-29T04:27:37;2.97;;;1.88;;
52888;SDS011;41413;52.770;6.892;2022-07-29T04:30:24;3.15;;;2.47;;
52888;SDS011;41413;52.770;6.892;2022-07-29T04:32:51;2.35;;;2.03;;
52888;SDS011;41413;52.770;6.892;2022-07-29T04:35:18;5.97;;;2.35;;
52888;SDS011;41413;52.770;6.892;2022-07-29T04:37:45;4.50;;;2.58;;
52888;SDS011;41413;52.770;6.892;2022-07-29T04:40:12;5.15;;;1.98;;
52888;SDS011;41413;52.770;6.892;2022-07-29T04:42:38;6.05;;;2.70;;
52888;SDS011;41413;52.770;6.892;2022-07-29T04:45:12;6.95;;;2.60;;
52888;SDS011;41413;52.770;6.892;2022-07-29T04:47:39;3.50;;;2.28;;
52888;SDS011;41413;52.770;6.892;2022-07-29T04:50:06;4.22;;;2.42;;
52888;SDS011;41413;52.770;6.892;2022-07-29T04:52:33;12.43;;;3.45;;
52888;SDS011;41413;52.770;6.892;2022-07-29T04:55:01;3.70;;;2.38;;
52888;SDS011;41413;52.770;6.892;2022-07-29T04:57:29;6.45;;;2.45;;
52888;SDS011;41413;52.770;6.892;2022-07-29T04:59:56;5.20;;;2.60;;
52888;SDS011;41413;52.770;6.892;2022-07-29T05:02:22;3.25;;;2.50;;
52888;SDS011;41413;52.770;6.892;2022-07-29T05:04:49;7.53;;;2.95;;
52888;SDS011;41413;52.770;6.892;2022-07-29T05:07:16;2.42;;;2.22;;
52888;SDS011;41413;52.770;6.892;2022-07-29T05:09:42;2.50;;;2.17;;
52888;SDS011;41413;52.770;6.892;2022-07-29T05:12:09;4.40;;;2.50;;
52888;SDS011;41413;52.770;6.892;2022-07-29T05:14:36;4.88;;;2.53;;
52888;SDS011;41413;52.770;6.892;2022-07-29T05:17:03;2.63;;;2.40;;
52888;SDS011;41413;52.770;6.892;2022-07-29T05:19:30;3.17;;;2.28;;
52888;SDS011;41413;52.770;6.892;2022-07-29T05:21:56;4.70;;;2.13;;
52888;SDS011;41413;52.770;6.892;2022-07-29T05:24:23;7.97;;;2.85;;
52888;SDS011;41413;52.770;6.892;2022-07-29T05:26:50;6.88;;;2.60;;
52888;SDS011;41413;52.770;6.892;2022-07-29T05:29:17;9.68;;;2.88;;
52888;SDS011;41413;52.770;6.892;2022-07-29T05:32:03;3.80;;;2.65;;
52888;SDS011;41413;52.770;6.892;2022-07-29T05:34:31;4.45;;;2.47;;
52888;SDS011;41413;52.770;6.892;2022-07-29T05:36:57;8.35;;;3.03;;
52888;SDS011;41413;52.770;6.892;2022-07-29T05:39:24;4.55;;;2.33;;
52888;SDS011;41413;52.770;6.892;2022-07-29T05:42:11;4.50;;;2.42;;
52888;SDS011;41413;52.770;6.892;2022-07-29T05:44:38;2.95;;;2.03;;
52888;SDS011;41413;52.770;6.892;2022-07-29T05:47:05;5.22;;;2.80;;
52888;SDS011;41413;52.770;6.892;2022-07-29T05:49:32;8.30;;;2.97;;
52888;SDS011;41413;52.770;6.892;2022-07-29T05:51:59;6.28;;;3.28;;
52888;SDS011;41413;52.770;6.892;2022-07-29T05:54:26;3.67;;;2.95;;
52888;SDS011;41413;52.770;6.892;2022-07-29T05:56:52;3.80;;;2.55;;
52888;SDS011;41413;52.770;6.892;2022-07-29T05:59:19;13.70;;;2.67;;
52888;SDS011;41413;52.770;6.892;2022-07-29T06:01:46;3.90;;;2.35;;
52888;SDS011;41413;52.770;6.892;2022-07-29T06:04:12;6.20;;;2.05;;
52888;SDS011;41413;52.770;6.892;2022-07-29T06:06:40;2.20;;;2.00;;
52888;SDS011;41413;52.770;6.892;2022-07-29T06:09:06;4.50;;;2.50;;
52888;SDS011;41413;52.770;6.892;2022-07-29T06:11:38;3.03;;;2.60;;
52888;SDS011;41413;52.770;6.892;2022-07-29T06:14:04;3.55;;;2.40;;
52888;SDS011;41413;52.770;6.892;2022-07-29T06:16:31;5.18;;;2.78;;
52888;SDS011;41413;52.770;6.892;2022-07-29T06:18:58;4.65;;;2.90;;
52888;SDS011;41413;52.770;6.892;2022-07-29T06:21:24;3.97;;;2.55;;
52888;SDS011;41413;52.770;6.892;2022-07-29T06:23:51;3.50;;;2.75;;
52888;SDS011;41413;52.770;6.892;2022-07-29T06:26:18;2.92;;;2.60;;
52888;SDS011;41413;52.770;6.892;2022-07-29T06:28:56;6.13;;;2.15;;
52888;SDS011;41413;52.770;6.892;2022-07-29T06:31:23;4.05;;;2.28;;
52888;SDS011;41413;52.770;6.892;2022-07-29T06:33:50;4.13;;;2.33;;
52888;SDS011;41413;52.770;6.892;2022-07-29T06:36:19;3.25;;;2.55;;
52888;SDS011;41413;52.770;6.892;2022-07-29T06:38:49;5.70;;;2.10;;
52888;SDS011;41413;52.770;6.892;2022-07-29T06:41:17;2.17;;;1.98;;
52888;SDS011;41413;52.770;6.892;2022-07-29T06:43:44;5.50;;;2.65;;
52888;SDS011;41413;52.770;6.892;2022-07-29T06:48:46;10.57;;;4.53;;
52888;SDS011;41413;52.770;6.892;2022-07-29T06:51:14;4.70;;;2.60;;
52888;SDS011;41413;52.770;6.892;2022-07-29T06:53:48;4.18;;;3.22;;
52888;SDS011;41413;52.770;6.892;2022-07-29T06:56:28;3.95;;;2.55;;
52888;SDS011;41413;52.770;6.892;2022-07-29T06:58:56;2.45;;;2.25;;
52888;SDS011;41413;52.770;6.892;2022-07-29T07:01:23;8.77;;;3.15;;
52888;SDS011;41413;52.770;6.892;2022-07-29T07:03:50;2.92;;;2.72;;
52888;SDS011;41413;52.770;6.892;2022-07-29T07:06:16;3.05;;;2.33;;
52888;SDS011;41413;52.770;6.892;2022-07-29T07:08:43;9.77;;;3.05;;
52888;SDS011;41413;52.770;6.892;2022-07-29T07:11:10;2.85;;;2.65;;
52888;SDS011;41413;52.770;6.892;2022-07-29T07:13:37;5.53;;;2.90;;
52888;SDS011;41413;52.770;6.892;2022-07-29T07:16:04;6.22;;;3.03;;
52888;SDS011;41413;52.770;6.892;2022-07-29T07:18:31;5.57;;;2.90;;
52888;SDS011;41413;52.770;6.892;2022-07-29T07:20:57;2.47;;;2.13;;
52888;SDS011;41413;52.770;6.892;2022-07-29T07:23:24;4.30;;;3.20;;
52888;SDS011;41413;52.770;6.892;2022-07-29T07:25:51;4.95;;;2.38;;
52888;SDS011;41413;52.770;6.892;2022-07-29T07:28:18;5.35;;;2.45;;
52888;SDS011;41413;52.770;6.892;2022-07-29T07:30:50;4.38;;;2.92;;
52888;SDS011;41413;52.770;6.892;2022-07-29T07:33:17;9.60;;;2.95;;
52888;SDS011;41413;52.770;6.892;2022-07-29T07:35:44;4.85;;;2.88;;
52888;SDS011;41413;52.770;6.892;2022-07-29T07:38:11;4.05;;;2.75;;
52888;SDS011;41413;52.770;6.892;2022-07-29T07:40:38;9.10;;;3.00;;
52888;SDS011;41413;52.770;6.892;2022-07-29T07:43:04;4.90;;;2.83;;
52888;SDS011;41413;52.770;6.892;2022-07-29T07:45:31;4.72;;;2.80;;
52888;SDS011;41413;52.770;6.892;2022-07-29T07:48:03;6.68;;;2.75;;
52888;SDS011;41413;52.770;6.892;2022-07-29T07:50:30;5.78;;;2.38;;
52888;SDS011;41413;52.770;6.892;2022-07-29T07:52:57;5.35;;;2.30;;
52888;SDS011;41413;52.770;6.892;2022-07-29T07:55:24;5.82;;;2.45;;
52888;SDS011;41413;52.770;6.892;2022-07-29T07:57:52;4.45;;;2.80;;
52888;SDS011;41413;52.770;6.892;2022-07-29T08:00:19;3.05;;;2.78;;
52888;SDS011;41413;52.770;6.892;2022-07-29T08:02:49;4.25;;;2.85;;
52888;SDS011;41413;52.770;6.892;2022-07-29T08:05:16;4.75;;;2.90;;
52888;SDS011;41413;52.770;6.892;2022-07-29T08:07:44;7.68;;;3.20;;
52888;SDS011;41413;52.770;6.892;2022-07-29T08:10:14;5.25;;;3.00;;
52888;SDS011;41413;52.770;6.892;2022-07-29T08:13:08;11.73;;;3.00;;
52888;SDS011;41413;52.770;6.892;2022-07-29T08:15:38;2.25;;;2.10;;
52888;SDS011;41413;52.770;6.892;2022-07-29T08:18:05;5.70;;;2.97;;
52888;SDS011;41413;52.770;6.892;2022-07-29T08:20:34;4.20;;;2.67;;
52888;SDS011;41413;52.770;6.892;2022-07-29T08:23:02;3.33;;;2.40;;
52888;SDS011;41413;52.770;6.892;2022-07-29T08:25:29;3.10;;;2.20;;
52888;SDS011;41413;52.770;6.892;2022-07-29T08:27:55;11.85;;;3.10;;
52888;SDS011;41413;52.770;6.892;2022-07-29T08:30:22;7.53;;;2.50;;
52888;SDS011;41413;52.770;6.892;2022-07-29T08:32:49;4.72;;;2.70;;
52888;SDS011;41413;52.770;6.892;2022-07-29T08:35:21;5.05;;;2.33;;
52888;SDS011;41413;52.770;6.892;2022-07-29T08:37:49;3.15;;;2.95;;
52888;SDS011;41413;52.770;6.892;2022-07-29T08:40:16;3.42;;;2.10;;
52888;SDS011;41413;52.770;6.892;2022-07-29T08:42:43;7.32;;;2.20;;
52888;SDS011;41413;52.770;6.892;2022-07-29T08:45:10;7.10;;;2.50;;
52888;SDS011;41413;52.770;6.892;2022-07-29T08:47:38;3.63;;;2.65;;
52888;SDS011;41413;52.770;6.892;2022-07-29T08:50:06;4.68;;;2.90;;
52888;SDS011;41413;52.770;6.892;2022-07-29T08:52:38;2.92;;;2.55;;
52888;SDS011;41413;52.770;6.892;2022-07-29T08:55:07;3.03;;;2.83;;
52888;SDS011;41413;52.770;6.892;2022-07-29T08:57:35;3.40;;;2.38;;
52888;SDS011;41413;52.770;6.892;2022-07-29T09:00:16;3.63;;;2.40;;
52888;SDS011;41413;52.770;6.892;2022-07-29T09:02:45;4.30;;;2.72;;
52888;SDS011;41413;52.770;6.892;2022-07-29T09:05:17;5.50;;;2.80;;
52888;SDS011;41413;52.770;6.892;2022-07-29T09:07:45;3.08;;;2.10;;
52888;SDS011;41413;52.770;6.892;2022-07-29T09:10:14;4.22;;;2.30;;
52888;SDS011;41413;52.770;6.892;2022-07-29T09:12:40;6.25;;;3.08;;
52888;SDS011;41413;52.770;6.892;2022-07-29T09:15:07;3.92;;;2.88;;
52888;SDS011;41413;52.770;6.892;2022-07-29T09:17:41;4.72;;;2.97;;
52888;SDS011;41413;52.770;6.892;2022-07-29T09:20:14;3.97;;;3.58;;
52888;SDS011;41413;52.770;6.892;2022-07-29T09:22:43;6.00;;;2.92;;
52888;SDS011;41413;52.770;6.892;2022-07-29T09:25:13;4.28;;;3.15;;
52888;SDS011;41413;52.770;6.892;2022-07-29T09:27:39;6.22;;;3.15;;
52888;SDS011;41413;52.770;6.892;2022-07-29T09:30:07;9.85;;;3.38;;
52888;SDS011;41413;52.770;6.892;2022-07-29T09:32:55;5.20;;;3.33;;
52888;SDS011;41413;52.770;6.892;2022-07-29T09:35:25;5.50;;;2.30;;
52888;SDS011;41413;52.770;6.892;2022-07-29T09:37:52;5.00;;;2.88;;
52888;SDS011;41413;52.770;6.892;2022-07-29T09:40:26;3.50;;;2.58;;
52888;SDS011;41413;52.770;6.892;2022-07-29T09:42:54;5.05;;;2.65;;
52888;SDS011;41413;52.770;6.892;2022-07-29T09:45:27;7.32;;;3.20;;
52888;SDS011;41413;52.770;6.892;2022-07-29T09:47:55;14.98;;;3.38;;
52888;SDS011;41413;52.770;6.892;2022-07-29T09:50:38;11.55;;;3.38;;
52888;SDS011;41413;52.770;6.892;2022-07-29T09:53:06;6.88;;;3.88;;
52888;SDS011;41413;52.770;6.892;2022-07-29T10:00:45;5.65;;;2.80;;
52888;SDS011;41413;52.770;6.892;2022-07-29T10:03:13;3.33;;;2.70;;
52888;SDS011;41413;52.770;6.892;2022-07-29T10:05:40;9.93;;;2.97;;
52888;SDS011;41413;52.770;6.892;2022-07-29T10:08:08;5.28;;;2.50;;
52888;SDS011;41413;52.770;6.892;2022-07-29T10:10:40;3.97;;;2.33;;
52888;SDS011;41413;52.770;6.892;2022-07-29T10:13:14;5.20;;;2.45;;
52888;SDS011;41413;52.770;6.892;2022-07-29T10:15:42;2.45;;;2.20;;
52888;SDS011;41413;52.770;6.892;2022-07-29T10:18:11;2.72;;;2.53;;
52888;SDS011;41413;52.770;6.892;2022-07-29T10:20:40;4.30;;;2.55;;
52888;SDS011;41413;52.770;6.892;2022-07-29T10:23:07;3.03;;;2.30;;
52888;SDS011;41413;52.770;6.892;2022-07-29T10:25:35;6.15;;;3.25;;
52888;SDS011;41413;52.770;6.892;2022-07-29T10:28:01;4.90;;;3.53;;
52888;SDS011;41413;52.770;6.892;2022-07-29T10:30:28;5.22;;;3.15;;
52888;SDS011;41413;52.770;6.892;2022-07-29T10:33:15;7.82;;;3.40;;
52888;SDS011;41413;52.770;6.892;2022-07-29T10:44:21;5.65;;;3.13;;
52888;SDS011;41413;52.770;6.892;2022-07-29T10:46:50;2.83;;;2.60;;
52888;SDS011;41413;52.770;6.892;2022-07-29T10:49:22;2.70;;;2.50;;
52888;SDS011;41413;52.770;6.892;2022-07-29T10:52:08;6.90;;;3.92;;
52888;SDS011;41413;52.770;6.892;2022-07-29T10:57:15;5.50;;;3.03;;
52888;SDS011;41413;52.770;6.892;2022-07-29T10:59:43;5.47;;;3.08;;
52888;SDS011;41413;52.770;6.892;2022-07-29T11:05:11;8.98;;;3.10;;
52888;SDS011;41413;52.770;6.892;2022-07-29T11:07:40;3.92;;;2.92;;
52888;SDS011;41413;52.770;6.892;2022-07-29T11:10:49;6.72;;;2.88;;
52888;SDS011;41413;52.770;6.892;2022-07-29T11:16:09;8.68;;;3.30;;
52888;SDS011;41413;52.770;6.892;2022-07-29T11:18:36;3.88;;;2.90;;
52888;SDS011;41413;52.770;6.892;2022-07-29T11:21:40;6.45;;;3.35;;
52888;SDS011;41413;52.770;6.892;2022-07-29T11:24:21;3.80;;;2.83;;
52888;SDS011;41413;52.770;6.892;2022-07-29T11:29:53;2.97;;;2.72;;
52888;SDS011;41413;52.770;6.892;2022-07-29T11:32:22;3.42;;;3.00;;
52888;SDS011;41413;52.770;6.892;2022-07-29T11:35:40;3.22;;;2.92;;
52888;SDS011;41413;52.770;6.892;2022-07-29T11:43:52;4.72;;;3.00;;
52888;SDS011;41413;52.770;6.892;2022-07-29T11:51:58;11.57;;;3.25;;
52888;SDS011;41413;52.770;6.892;2022-07-29T11:54:31;4.00;;;3.08;;
52888;SDS011;41413;52.770;6.892;2022-07-29T11:57:19;11.63;;;3.28;;
52888;SDS011;41413;52.770;6.892;2022-07-29T11:59:47;3.97;;;3.22;;
52888;SDS011;41413;52.770;6.892;2022-07-29T12:02:14;5.55;;;3.30;;
52888;SDS011;41413;52.770;6.892;2022-07-29T12:05:01;4.95;;;2.92;;
52888;SDS011;41413;52.770;6.892;2022-07-29T12:07:36;9.57;;;3.42;;
52888;SDS011;41413;52.770;6.892;2022-07-29T12:10:06;5.28;;;3.50;;
52888;SDS011;41413;52.770;6.892;2022-07-29T12:12:48;3.88;;;3.53;;
52888;SDS011;41413;52.770;6.892;2022-07-29T12:15:18;3.17;;;2.58;;
52888;SDS011;41413;52.770;6.892;2022-07-29T12:18:10;3.97;;;3.50;;
52888;SDS011;41413;52.770;6.892;2022-07-29T12:20:44;5.70;;;3.13;;
52888;SDS011;41413;52.770;6.892;2022-07-29T12:23:11;3.97;;;3.00;;
52888;SDS011;41413;52.770;6.892;2022-07-29T12:25:41;6.97;;;4.13;;
52888;SDS011;41413;52.770;6.892;2022-07-29T12:28:10;3.95;;;3.00;;
52888;SDS011;41413;52.770;6.892;2022-07-29T12:30:51;6.75;;;3.35;;
52888;SDS011;41413;52.770;6.892;2022-07-29T12:33:21;3.67;;;3.38;;
52888;SDS011;41413;52.770;6.892;2022-07-29T12:35:50;6.72;;;3.42;;
52888;SDS011;41413;52.770;6.892;2022-07-29T12:38:42;6.03;;;3.28;;
52888;SDS011;41413;52.770;6.892;2022-07-29T12:41:09;7.35;;;3.63;;
52888;SDS011;41413;52.770;6.892;2022-07-29T12:43:36;5.95;;;3.55;;
52888;SDS011;41413;52.770;6.892;2022-07-29T12:46:13;8.98;;;3.90;;
52888;SDS011;41413;52.770;6.892;2022-07-29T12:48:42;5.97;;;3.05;;
52888;SDS011;41413;52.770;6.892;2022-07-29T12:51:10;8.38;;;3.25;;
52888;SDS011;41413;52.770;6.892;2022-07-29T12:53:37;8.13;;;3.17;;
52888;SDS011;41413;52.770;6.892;2022-07-29T12:56:05;5.55;;;3.40;;
52888;SDS011;41413;52.770;6.892;2022-07-29T12:58:52;3.00;;;2.78;;
52888;SDS011;41413;52.770;6.892;2022-07-29T13:01:19;4.25;;;3.40;;
52888;SDS011;41413;52.770;6.892;2022-07-29T13:03:48;15.45;;;3.97;;
52888;SDS011;41413;52.770;6.892;2022-07-29T13:06:39;3.30;;;3.00;;
52888;SDS011;41413;52.770;6.892;2022-07-29T13:09:16;4.60;;;3.83;;
52888;SDS011;41413;52.770;6.892;2022-07-29T13:11:49;4.38;;;3.35;;
52888;SDS011;41413;52.770;6.892;2022-07-29T13:17:07;7.78;;;3.63;;
52888;SDS011;41413;52.770;6.892;2022-07-29T13:19:49;4.03;;;3.40;;
52888;SDS011;41413;52.770;6.892;2022-07-29T13:22:23;6.38;;;3.33;;
52888;SDS011;41413;52.770;6.892;2022-07-29T13:27:18;3.38;;;3.08;;
52888;SDS011;41413;52.770;6.892;2022-07-29T13:29:46;3.63;;;3.33;;
52888;SDS011;41413;52.770;6.892;2022-07-29T13:32:13;5.57;;;3.40;;
52888;SDS011;41413;52.770;6.892;2022-07-29T13:34:40;7.55;;;3.40;;
52888;SDS011;41413;52.770;6.892;2022-07-29T13:39:41;12.55;;;3.60;;
52888;SDS011;41413;52.770;6.892;2022-07-29T13:42:17;4.35;;;3.10;;
52888;SDS011;41413;52.770;6.892;2022-07-29T13:44:45;10.00;;;3.60;;
52888;SDS011;41413;52.770;6.892;2022-07-29T13:47:11;4.20;;;3.17;;
52888;SDS011;41413;52.770;6.892;2022-07-29T13:49:38;3.70;;;2.67;;
52888;SDS011;41413;52.770;6.892;2022-07-29T13:52:05;5.78;;;2.90;;
52888;SDS011;41413;52.770;6.892;2022-07-29T13:54:33;6.68;;;4.07;;
52888;SDS011;41413;52.770;6.892;2022-07-29T13:57:07;7.90;;;2.65;;
52888;SDS011;41413;52.770;6.892;2022-07-29T13:59:34;4.25;;;3.55;;
52888;SDS011;41413;52.770;6.892;2022-07-29T14:02:01;3.85;;;3.40;;
52888;SDS011;41413;52.770;6.892;2022-07-29T14:04:28;3.65;;;3.22;;
52888;SDS011;41413;52.770;6.892;2022-07-29T14:06:55;5.22;;;2.90;;
52888;SDS011;41413;52.770;6.892;2022-07-29T14:09:22;13.60;;;3.35;;
52888;SDS011;41413;52.770;6.892;2022-07-29T14:11:49;8.63;;;2.97;;
52888;SDS011;41413;52.770;6.892;2022-07-29T14:14:19;3.58;;;2.90;;
52888;SDS011;41413;52.770;6.892;2022-07-29T14:16:46;6.40;;;3.42;;
52888;SDS011;41413;52.770;6.892;2022-07-29T14:19:17;7.03;;;3.20;;
52888;SDS011;41413;52.770;6.892;2022-07-29T14:21:44;4.68;;;2.70;;
52888;SDS011;41413;52.770;6.892;2022-07-29T14:24:11;5.03;;;3.78;;
52888;SDS011;41413;52.770;6.892;2022-07-29T14:26:46;6.40;;;3.22;;
52888;SDS011;41413;52.770;6.892;2022-07-29T14:29:13;13.43;;;3.50;;
52888;SDS011;41413;52.770;6.892;2022-07-29T14:31:40;4.25;;;3.08;;
52888;SDS011;41413;52.770;6.892;2022-07-29T14:34:07;8.95;;;3.97;;
52888;SDS011;41413;52.770;6.892;2022-07-29T14:36:33;4.35;;;3.28;;
52888;SDS011;41413;52.770;6.892;2022-07-29T14:39:00;3.95;;;2.92;;
52888;SDS011;41413;52.770;6.892;2022-07-29T14:41:27;4.53;;;2.88;;
52888;SDS011;41413;52.770;6.892;2022-07-29T14:43:54;4.40;;;3.28;;
52888;SDS011;41413;52.770;6.892;2022-07-29T14:46:21;9.30;;;3.95;;
52888;SDS011;41413;52.770;6.892;2022-07-29T14:48:47;6.57;;;3.22;;
52888;SDS011;41413;52.770;6.892;2022-07-29T14:51:14;10.93;;;4.00;;
52888;SDS011;41413;52.770;6.892;2022-07-29T14:53:41;12.77;;;3.72;;
52888;SDS011;41413;52.770;6.892;2022-07-29T14:56:08;3.20;;;2.90;;
52888;SDS011;41413;52.770;6.892;2022-07-29T14:58:58;4.57;;;3.10;;
52888;SDS011;41413;52.770;6.892;2022-07-29T15:01:25;8.32;;;3.20;;
52888;SDS011;41413;52.770;6.892;2022-07-29T15:03:51;11.55;;;4.25;;
52888;SDS011;41413;52.770;6.892;2022-07-29T15:06:24;6.43;;;3.53;;
52888;SDS011;41413;52.770;6.892;2022-07-29T15:08:51;5.15;;;3.13;;
52888;SDS011;41413;52.770;6.892;2022-07-29T15:11:18;6.72;;;3.33;;
52888;SDS011;41413;52.770;6.892;2022-07-29T15:13:45;5.80;;;4.07;;
52888;SDS011;41413;52.770;6.892;2022-07-29T15:16:11;4.47;;;3.28;;
52888;SDS011;41413;52.770;6.892;2022-07-29T15:18:38;5.15;;;4.20;;
52888;SDS011;41413;52.770;6.892;2022-07-29T15:21:05;3.30;;;3.03;;
52888;SDS011;41413;52.770;6.892;2022-07-29T15:23:33;6.38;;;3.97;;
52888;SDS011;41413;52.770;6.892;2022-07-29T15:26:03;5.63;;;3.55;;
52888;SDS011;41413;52.770;6.892;2022-07-29T15:28:30;4.53;;;3.50;;
52888;SDS011;41413;52.770;6.892;2022-07-29T15:30:57;4.50;;;2.85;;
52888;SDS011;41413;52.770;6.892;2022-07-29T15:33:25;3.75;;;2.58;;
52888;SDS011;41413;52.770;6.892;2022-07-29T15:35:51;4.55;;;3.25;;
52888;SDS011;41413;52.770;6.892;2022-07-29T15:38:18;8.90;;;3.67;;
52888;SDS011;41413;52.770;6.892;2022-07-29T15:40:53;6.38;;;4.03;;
52888;SDS011;41413;52.770;6.892;2022-07-29T15:43:20;4.40;;;2.97;;
52888;SDS011;41413;52.770;6.892;2022-07-29T15:45:47;4.97;;;2.90;;
52888;SDS011;41413;52.770;6.892;2022-07-29T15:48:33;8.18;;;3.25;;
52888;SDS011;41413;52.770;6.892;2022-07-29T15:51:05;8.07;;;3.47;;
52888;SDS011;41413;52.770;6.892;2022-07-29T15:53:32;5.35;;;3.65;;
52888;SDS011;41413;52.770;6.892;2022-07-29T15:56:00;7.40;;;4.03;;
52888;SDS011;41413;52.770;6.892;2022-07-29T15:58:27;7.47;;;3.08;;
52888;SDS011;41413;52.770;6.892;2022-07-29T16:00:54;6.85;;;3.25;;
52888;SDS011;41413;52.770;6.892;2022-07-29T16:03:20;4.32;;;2.88;;
52888;SDS011;41413;52.770;6.892;2022-07-29T16:05:47;4.88;;;3.00;;
52888;SDS011;41413;52.770;6.892;2022-07-29T16:08:14;3.65;;;2.95;;
52888;SDS011;41413;52.770;6.892;2022-07-29T16:10:41;7.03;;;3.58;;
52888;SDS011;41413;52.770;6.892;2022-07-29T16:13:07;4.88;;;3.80;;
52888;SDS011;41413;52.770;6.892;2022-07-29T16:15:34;3.35;;;3.03;;
52888;SDS011;41413;52.770;6.892;2022-07-29T16:18:01;6.05;;;3.13;;